Big Stone, South Dakota
Current Conditions -  °F | °C
As of 9:13 AM on Wednesday 22 Oct 2014 (Local Time) from KVVV Reporting Station
Scattered Clouds Scattered Clouds  
Wind Chill: 52°   Ceiling: Unl
Heat Index: 52°   Visibility: 10mi
Dew Point: 43°   Wind: 12mph
Humidity: 71%   Direction: 150°SSE
Pressure: 29.94"   Gusts: 20mph
Location:  45.2834°N, 96.6605°W
Report Text: KVVV 221413Z AUTO 15010G17KT 10SM SCT090 11/06 A2994 RMK AO2
Loading
Personal Weather Stations






























Interactive Weather Map
Tropical Storm Tracking
New forecast layout! Learn more

10-Day Weather Forecast

Advertisements
Track Severe Weather on mobile